createdAt,value
2023-04-26T00:02:52.209Z,67.76
2023-04-26T00:05:58.247Z,67.56
2023-04-26T00:09:08.248Z,66.97
2023-04-26T00:12:14.952Z,67.20
2023-04-26T00:15:21.833Z,67.15
2023-04-26T00:18:27.818Z,66.33
2023-04-26T00:21:34.881Z,65.25
2023-04-26T00:24:43.650Z,65.78
2023-04-26T00:27:50.770Z,64.82
2023-04-26T00:30:58.275Z,64.54
2023-04-26T00:34:05.101Z,64.87
2023-04-26T00:37:11.012Z,64.96
2023-04-26T00:40:21.051Z,64.69
2023-04-26T00:43:27.046Z,64.28
2023-04-26T00:46:34.107Z,64.01
2023-04-26T00:49:40.426Z,63.44
2023-04-26T00:52:50.304Z,63.70
2023-04-26T00:55:59.306Z,62.98
2023-04-26T00:59:07.037Z,63.66
2023-04-26T01:02:13.308Z,64.20
2023-04-26T01:05:21.062Z,64.88
2023-04-26T01:08:27.863Z,65.90
2023-04-26T01:11:41.630Z,63.84
2023-04-26T01:14:49.100Z,63.42
2023-04-26T01:17:55.845Z,63.58
2023-04-26T01:21:05.066Z,63.49
2023-04-26T01:24:15.844Z,63.73
2023-04-26T01:27:22.657Z,63.41
2023-04-26T01:30:29.073Z,63.85
2023-04-26T01:33:35.913Z,63.81
2023-04-26T01:36:42.875Z,64.33
2023-04-26T01:39:53.959Z,63.96
2023-04-26T01:43:00.055Z,64.12
2023-04-26T01:46:08.735Z,63.61
2023-04-26T01:49:15.039Z,63.36
2023-04-26T01:52:21.970Z,63.27
2023-04-26T01:55:30.592Z,63.37
2023-04-26T01:58:37.520Z,63.84
2023-04-26T02:01:46.030Z,63.99
2023-04-26T02:04:52.805Z,64.57
2023-04-26T02:07:58.852Z,65.12
2023-04-26T02:11:08.257Z,66.13
2023-04-26T02:14:16.072Z,66.74
2023-04-26T02:17:23.999Z,67.11
2023-04-26T02:20:29.880Z,67.26
2023-04-26T02:23:36.690Z,67.36
2023-04-26T02:26:45.289Z,67.85
2023-04-26T02:29:52.112Z,67.98
2023-04-26T02:32:58.548Z,68.42
2023-04-26T02:36:08.416Z,68.87
2023-04-26T02:39:17.309Z,68.95
2023-04-26T02:42:26.900Z,69.25
2023-04-26T02:45:33.133Z,69.42
2023-04-26T02:48:40.010Z,69.87
2023-04-26T02:51:46.444Z,69.73
2023-04-26T02:54:59.554Z,69.42
2023-04-26T02:58:18.727Z,69.36
2023-04-26T03:01:31.671Z,69.48
2023-04-26T03:04:38.853Z,69.22
2023-04-26T03:07:45.667Z,69.33
2023-04-26T03:10:51.652Z,69.37
2023-04-26T03:14:01.627Z,69.73
2023-04-26T03:17:16.586Z,69.67
2023-04-26T03:20:28.486Z,69.44
2023-04-26T03:23:34.470Z,69.45
2023-04-26T03:26:44.341Z,69.97
2023-04-26T03:29:53.210Z,69.96
2023-04-26T03:33:00.374Z,69.73
2023-04-26T03:36:06.755Z,70.09
2023-04-26T03:39:13.789Z,70.33
2023-04-26T03:42:19.776Z,69.85
2023-04-26T03:45:29.747Z,69.95
2023-04-26T03:48:35.718Z,70.17
2023-04-26T03:51:42.521Z,70.16
2023-04-26T03:54:48.621Z,69.97
2023-04-26T03:57:57.122Z,69.75
2023-04-26T04:01:05.679Z,69.55
2023-04-26T04:04:15.459Z,69.56
2023-04-26T04:07:23.400Z,69.83
2023-04-26T04:10:35.348Z,69.19
2023-04-26T04:13:41.223Z,69.15
2023-04-26T04:16:51.223Z,68.85
2023-04-26T04:19:57.253Z,68.96
2023-04-26T04:23:06.549Z,68.12
2023-04-26T04:26:12.844Z,67.84
2023-04-26T04:29:20.463Z,68.04
2023-04-26T04:32:29.613Z,66.14
2023-04-26T04:35:37.018Z,65.27
2023-04-26T04:38:44.699Z,62.54
2023-04-26T04:41:52.811Z,60.97
2023-04-26T04:45:00.005Z,58.55
2023-04-26T04:48:22.217Z,56.87
2023-04-26T04:51:28.358Z,56.12
2023-04-26T04:54:36.005Z,56.52
2023-04-26T04:57:43.093Z,53.99
2023-04-26T05:00:51.801Z,52.54
2023-04-26T05:04:11.915Z,50.38
2023-04-26T05:07:19.192Z,49.43
2023-04-26T05:10:25.296Z,49.07
2023-04-26T05:13:32.933Z,47.93
2023-04-26T05:16:39.087Z,47.26
2023-04-26T05:19:48.672Z,45.90
2023-04-26T05:22:55.104Z,44.92
2023-04-26T05:26:07.930Z,42.33
2023-04-26T05:29:32.327Z,42.20
2023-04-26T05:32:46.103Z,42.05
2023-04-26T05:36:15.366Z,42.01
2023-04-26T05:39:22.232Z,42.05
2023-04-26T05:42:40.501Z,41.79
2023-04-26T05:45:56.490Z,40.00
2023-04-26T05:49:04.166Z,39.88
2023-04-26T05:52:14.263Z,40.15
2023-04-26T05:55:21.723Z,39.16
2023-04-26T05:58:29.625Z,38.26
2023-04-26T06:01:35.710Z,36.81
2023-04-26T06:04:43.626Z,36.77
2023-04-26T06:07:55.419Z,36.16
2023-04-26T06:11:02.252Z,37.38
2023-04-26T06:14:30.360Z,35.60
2023-04-26T06:17:45.069Z,36.82
2023-04-26T06:20:51.157Z,37.63
2023-04-26T06:24:00.659Z,37.80
2023-04-26T06:27:11.925Z,37.51
2023-04-26T06:30:22.809Z,36.38
2023-04-26T06:33:29.715Z,35.86
2023-04-26T06:36:36.736Z,35.19
2023-04-26T06:39:45.954Z,34.73
2023-04-26T06:42:53.226Z,36.93
2023-04-26T06:46:15.613Z,38.12
2023-04-26T06:49:22.920Z,40.09
2023-04-26T06:52:30.165Z,39.91
2023-04-26T06:55:40.027Z,40.05
2023-04-26T06:59:03.576Z,37.98
2023-04-26T07:02:10.730Z,38.96
2023-04-26T07:05:17.674Z,38.67
2023-04-26T07:08:24.700Z,37.15
2023-04-26T07:11:34.539Z,36.27
2023-04-26T07:14:43.610Z,38.75
2023-04-26T07:17:49.632Z,41.01
2023-04-26T07:20:59.430Z,41.83
2023-04-26T07:24:10.369Z,43.56
2023-04-26T07:27:19.777Z,42.51
2023-04-26T07:30:26.595Z,43.51
2023-04-26T07:33:33.705Z,44.41
2023-04-26T07:36:39.914Z,43.84
2023-04-26T07:39:46.776Z,45.04
2023-04-26T07:42:56.887Z,46.06
2023-04-26T07:46:08.545Z,44.65
2023-04-26T07:49:16.445Z,43.56
2023-04-26T07:52:23.685Z,42.61
2023-04-26T07:55:30.508Z,43.17
2023-04-26T07:58:41.023Z,42.99
2023-04-26T08:01:47.017Z,42.12
2023-04-26T08:04:56.115Z,41.76
2023-04-26T08:08:02.281Z,42.81
2023-04-26T08:11:13.938Z,39.80
2023-04-26T08:14:24.466Z,37.80
2023-04-26T08:17:31.589Z,37.66
2023-04-26T08:20:37.646Z,37.46
2023-04-26T08:23:44.811Z,36.20
2023-04-26T08:26:50.708Z,37.00
2023-04-26T08:30:00.137Z,36.90
2023-04-26T08:33:13.627Z,38.24
2023-04-26T08:36:20.958Z,37.46
2023-04-26T08:39:26.940Z,37.29
2023-04-26T08:42:37.939Z,36.43
2023-04-26T08:45:56.392Z,33.88
2023-04-26T08:49:21.037Z,31.99
2023-04-26T08:52:30.478Z,34.02
2023-04-26T08:55:46.717Z,34.54
2023-04-26T08:58:56.241Z,35.64
2023-04-26T09:02:08.050Z,37.31
2023-04-26T09:05:15.250Z,38.34
2023-04-26T09:08:24.819Z,39.85
2023-04-26T09:11:31.062Z,40.67
2023-04-26T09:14:38.662Z,40.94
2023-04-26T09:17:47.392Z,41.19
2023-04-26T09:21:18.113Z,42.16
2023-04-26T09:24:24.117Z,41.25
2023-04-26T09:27:43.514Z,38.47
2023-04-26T09:30:49.682Z,37.79
2023-04-26T09:34:05.244Z,38.13
2023-04-26T09:37:15.396Z,36.19
2023-04-26T09:40:23.715Z,36.11
2023-04-26T09:43:29.651Z,37.67
2023-04-26T09:46:44.381Z,38.76
2023-04-26T09:49:54.641Z,40.00
2023-04-26T09:53:03.108Z,41.31
2023-04-26T09:56:14.973Z,40.99
2023-04-26T09:59:21.778Z,40.07
2023-04-26T10:02:31.596Z,36.07
2023-04-26T10:05:41.744Z,36.38
2023-04-26T10:08:48.789Z,34.19
2023-04-26T10:11:56.428Z,33.40
2023-04-26T10:15:02.697Z,33.79
2023-04-26T10:18:10.076Z,31.78
2023-04-26T10:21:36.530Z,31.59
2023-04-26T10:24:43.968Z,31.29
2023-04-26T10:27:57.883Z,32.65
2023-04-26T10:31:05.836Z,33.40
2023-04-26T10:34:25.478Z,35.18
2023-04-26T10:37:34.963Z,35.08
2023-04-26T10:40:46.207Z,35.19
2023-04-26T10:44:00.115Z,31.88
2023-04-26T10:47:33.629Z,30.26
2023-04-26T10:51:12.778Z,29.74
2023-04-26T10:54:21.484Z,28.28
2023-04-26T10:57:54.209Z,30.96
2023-04-26T11:01:12.044Z,32.09
2023-04-26T11:04:32.836Z,33.62
2023-04-26T11:07:44.074Z,33.63
2023-04-26T11:11:02.831Z,35.19
2023-04-26T11:14:10.338Z,32.03
2023-04-26T11:17:17.645Z,29.92
2023-04-26T11:20:30.776Z,29.64
2023-04-26T11:23:38.759Z,30.90
2023-04-26T11:26:54.998Z,32.07
2023-04-26T11:30:05.521Z,33.23
2023-04-26T11:33:23.333Z,34.12
2023-04-26T11:36:30.265Z,33.28
2023-04-26T11:39:40.600Z,34.02
2023-04-26T11:42:50.172Z,30.85
2023-04-26T11:46:09.384Z,31.44
2023-04-26T11:49:30.668Z,31.16
2023-04-26T11:52:37.282Z,31.89
2023-04-26T11:55:44.360Z,31.22
2023-04-26T11:58:56.774Z,31.69
2023-04-26T12:02:10.551Z,31.83
2023-04-26T12:05:31.867Z,32.33
2023-04-26T12:08:40.885Z,32.71
2023-04-26T12:11:53.099Z,32.84
2023-04-26T12:15:02.482Z,33.37
2023-04-26T12:18:12.977Z,34.19
2023-04-26T12:21:23.233Z,34.26
2023-04-26T12:24:37.012Z,33.43
2023-04-26T12:27:44.339Z,32.75
2023-04-26T12:30:56.551Z,31.29
2023-04-26T12:34:03.442Z,31.88
2023-04-26T12:37:09.537Z,31.72
2023-04-26T12:40:17.035Z,32.36
2023-04-26T12:43:24.427Z,32.63
2023-04-26T12:46:41.613Z,33.20
2023-04-26T12:49:47.842Z,33.42
2023-04-26T12:52:54.705Z,35.35
2023-04-26T12:56:00.703Z,39.16
2023-04-26T12:59:08.167Z,39.82
2023-04-26T13:02:16.813Z,38.89
2023-04-26T13:05:24.949Z,38.92
2023-04-26T13:08:31.920Z,39.02
2023-04-26T13:11:38.752Z,36.85
2023-04-26T13:14:44.694Z,37.00
2023-04-26T13:17:54.219Z,36.20
2023-04-26T13:21:05.387Z,37.84
2023-04-26T13:24:12.254Z,36.61
2023-04-26T13:27:18.475Z,33.49
2023-04-26T13:30:35.337Z,34.85
2023-04-26T13:33:43.908Z,36.35
2023-04-26T13:37:00.978Z,36.23
2023-04-26T13:40:08.618Z,37.28
2023-04-26T13:43:15.754Z,38.37
2023-04-26T13:46:21.732Z,37.67
2023-04-26T13:49:31.399Z,37.36
2023-04-26T13:52:51.425Z,37.69
2023-04-26T13:55:58.381Z,38.97
2023-04-26T13:59:06.552Z,40.03
2023-04-26T14:02:14.323Z,38.26
2023-04-26T14:05:31.685Z,38.68
2023-04-26T14:08:38.545Z,37.33
2023-04-26T14:11:57.101Z,36.37
2023-04-26T14:15:29.669Z,35.29
2023-04-26T14:18:36.036Z,33.83
2023-04-26T14:21:45.731Z,33.05
2023-04-26T14:24:51.928Z,33.75
2023-04-26T14:27:58.791Z,33.26
2023-04-26T14:31:04.814Z,34.80
2023-04-26T14:34:16.649Z,35.92
2023-04-26T14:37:32.579Z,36.59
2023-04-26T14:40:40.683Z,36.37
2023-04-26T14:43:46.755Z,35.31
2023-04-26T14:46:54.069Z,34.87
2023-04-26T14:50:01.043Z,36.88
2023-04-26T14:53:10.758Z,36.44
2023-04-26T14:56:24.113Z,37.43
2023-04-26T14:59:31.020Z,38.69
2023-04-26T15:02:37.260Z,39.10
2023-04-26T15:05:44.125Z,38.73
2023-04-26T15:08:52.930Z,38.53
2023-04-26T15:12:00.033Z,37.92
2023-04-26T15:15:14.630Z,38.10
2023-04-26T15:18:21.677Z,37.24
2023-04-26T15:21:29.194Z,37.54
2023-04-26T15:24:44.377Z,37.62
2023-04-26T15:27:50.800Z,38.08
2023-04-26T15:31:05.917Z,38.19
2023-04-26T15:34:12.250Z,37.66
2023-04-26T15:37:26.189Z,38.60
2023-04-26T15:40:38.335Z,38.93
2023-04-26T15:43:46.792Z,38.70
2023-04-26T15:46:52.877Z,38.74
2023-04-26T15:50:05.096Z,38.26
2023-04-26T15:53:11.360Z,38.48
2023-04-26T15:56:22.695Z,38.73
2023-04-26T15:59:30.367Z,37.97
2023-04-26T16:02:37.512Z,38.34
2023-04-26T16:05:46.590Z,38.45
2023-04-26T16:08:53.461Z,39.09
2023-04-26T16:12:05.062Z,38.20
2023-04-26T16:15:14.737Z,38.00
2023-04-26T16:18:21.190Z,38.20
2023-04-26T16:21:34.096Z,37.94
2023-04-26T16:24:40.427Z,38.20
2023-04-26T16:27:49.816Z,36.39
2023-04-26T16:30:56.332Z,35.23
2023-04-26T16:34:05.330Z,35.28
2023-04-26T16:37:11.329Z,34.67
2023-04-26T16:40:18.482Z,35.14
2023-04-26T16:43:27.810Z,36.28
2023-04-26T16:46:34.728Z,37.45
2023-04-26T16:49:40.864Z,37.86
2023-04-26T16:52:47.706Z,38.08
2023-04-26T16:55:56.837Z,41.27
2023-04-26T16:59:06.794Z,42.95
2023-04-26T17:02:12.785Z,43.82
2023-04-26T17:05:20.053Z,43.99
2023-04-26T17:08:27.649Z,44.17
2023-04-26T17:11:35.764Z,44.81
2023-04-26T17:14:44.368Z,45.24
2023-04-26T17:17:58.142Z,44.77
2023-04-26T17:21:04.185Z,45.17
2023-04-26T17:24:11.776Z,45.45
2023-04-26T17:27:18.347Z,45.54
2023-04-26T17:30:28.200Z,45.56
2023-04-26T17:33:36.549Z,45.62
2023-04-26T17:36:43.537Z,46.10
2023-04-26T17:39:49.530Z,46.04
2023-04-26T17:42:56.551Z,46.20
2023-04-26T17:46:08.413Z,46.34
2023-04-26T17:49:15.309Z,46.25
2023-04-26T17:52:21.250Z,46.33
2023-04-26T17:55:28.039Z,45.60
2023-04-26T17:58:34.062Z,45.54
2023-04-26T18:01:46.558Z,45.49
2023-04-26T18:04:53.349Z,45.94
2023-04-26T18:08:00.988Z,46.37
2023-04-26T18:11:07.219Z,46.51
2023-04-26T18:14:14.147Z,46.22
2023-04-26T18:17:22.881Z,46.28
2023-04-26T18:20:32.308Z,46.97
2023-04-26T18:23:38.281Z,46.91
2023-04-26T18:26:45.125Z,47.32
2023-04-26T18:29:51.130Z,47.06
2023-04-26T18:33:00.565Z,46.90
2023-04-26T18:36:06.975Z,46.77
2023-04-26T18:39:19.939Z,46.84
2023-04-26T18:42:29.765Z,47.31
2023-04-26T18:45:36.732Z,46.76
2023-04-26T18:48:49.225Z,46.73
2023-04-26T18:51:57.549Z,46.87
2023-04-26T18:55:03.846Z,46.98
2023-04-26T18:58:10.706Z,47.43
2023-04-26T19:01:18.841Z,47.61
2023-04-26T19:04:28.997Z,47.42
2023-04-26T19:07:41.937Z,47.99
2023-04-26T19:10:48.808Z,48.50
2023-04-26T19:14:00.921Z,48.71
2023-04-26T19:17:19.224Z,48.98
2023-04-26T19:20:29.835Z,48.98
2023-04-26T19:23:36.974Z,49.24
2023-04-26T19:26:45.851Z,49.52
2023-04-26T19:29:59.839Z,50.60
2023-04-26T19:33:06.277Z,50.58
2023-04-26T19:36:17.522Z,51.03
2023-04-26T19:39:26.448Z,51.66
2023-04-26T19:42:33.434Z,51.57
2023-04-26T19:45:41.201Z,52.24
2023-04-26T19:48:48.048Z,51.99
2023-04-26T19:51:56.817Z,52.40
2023-04-26T19:55:03.807Z,52.68
2023-04-26T19:58:10.962Z,52.43
2023-04-26T20:01:17.799Z,52.21
2023-04-26T20:04:24.163Z,52.19
2023-04-26T20:07:45.350Z,52.35
2023-04-26T20:10:51.408Z,52.93
2023-04-26T20:13:58.310Z,52.99
2023-04-26T20:17:05.131Z,53.07
2023-04-26T20:20:22.497Z,53.24
2023-04-26T20:23:33.498Z,53.73
2023-04-26T20:26:40.271Z,53.79
2023-04-26T20:29:46.112Z,53.68
2023-04-26T20:32:52.969Z,53.80
2023-04-26T20:35:59.649Z,54.35
2023-04-26T20:39:10.089Z,54.40
2023-04-26T20:42:16.341Z,54.71
2023-04-26T20:45:30.236Z,54.95
2023-04-26T20:48:39.493Z,54.85
2023-04-26T20:51:46.493Z,55.03
2023-04-26T20:54:56.540Z,55.08
2023-04-26T20:58:03.256Z,55.66
2023-04-26T21:01:09.928Z,55.96
2023-04-26T21:04:17.006Z,56.26
2023-04-26T21:07:23.120Z,56.25
2023-04-26T21:10:32.637Z,56.64
2023-04-26T21:13:38.654Z,56.67
2023-04-26T21:16:45.459Z,56.87
2023-04-26T21:19:51.418Z,56.97
2023-04-26T21:22:58.291Z,57.28
2023-04-26T21:26:07.194Z,57.08
2023-04-26T21:29:13.931Z,57.10
2023-04-26T21:32:19.929Z,57.40
2023-04-26T21:35:29.681Z,57.86
2023-04-26T21:38:35.750Z,57.79
2023-04-26T21:41:46.513Z,57.44
2023-04-26T21:44:53.643Z,57.86
2023-04-26T21:48:00.433Z,57.78
2023-04-26T21:51:06.808Z,58.03
2023-04-26T21:54:13.911Z,58.63
2023-04-26T21:57:30.354Z,58.64
2023-04-26T22:00:42.568Z,58.64
2023-04-26T22:03:48.904Z,58.49
2023-04-26T22:06:55.782Z,58.29
2023-04-26T22:10:01.987Z,58.28
2023-04-26T22:13:15.400Z,58.29
2023-04-26T22:16:21.623Z,58.83
2023-04-26T22:19:29.791Z,58.63
2023-04-26T22:22:35.802Z,58.90
2023-04-26T22:25:42.903Z,58.68
2023-04-26T22:28:55.567Z,58.78
2023-04-26T22:32:06.369Z,58.49
2023-04-26T22:35:12.722Z,58.23
2023-04-26T22:38:19.523Z,58.00
2023-04-26T22:41:25.475Z,58.03
2023-04-26T22:44:34.874Z,57.82
2023-04-26T22:47:41.091Z,57.53
2023-04-26T22:50:47.910Z,57.77
2023-04-26T22:53:56.498Z,57.63
2023-04-26T22:57:03.648Z,57.88
2023-04-26T23:00:20.280Z,57.43
2023-04-26T23:03:27.169Z,57.84
2023-04-26T23:06:33.427Z,57.67
2023-04-26T23:09:42.959Z,57.57
2023-04-26T23:12:49.534Z,57.74
2023-04-26T23:15:59.000Z,57.89
2023-04-26T23:19:12.204Z,57.45
2023-04-26T23:22:19.123Z,57.34
2023-04-26T23:25:25.230Z,57.00
2023-04-26T23:28:32.188Z,57.40
2023-04-26T23:31:46.615Z,56.94
2023-04-26T23:34:53.361Z,57.27
2023-04-26T23:37:59.220Z,57.23
2023-04-26T23:41:20.120Z,57.26
2023-04-26T23:44:25.990Z,57.35
2023-04-26T23:47:35.383Z,57.59
2023-04-26T23:50:41.256Z,57.52
2023-04-26T23:53:48.123Z,57.83
2023-04-26T23:56:54.008Z,57.35
